createdAt,value
2023-03-19T00:02:03.995Z,13.50
2023-03-19T00:04:33.814Z,10.37
2023-03-19T00:06:55.552Z,13.80
2023-03-19T00:09:17.710Z,14.70
2023-03-19T00:11:39.197Z,9.10
2023-03-19T00:14:00.760Z,12.60
2023-03-19T00:16:22.310Z,22.90
2023-03-19T00:18:43.763Z,13.47
2023-03-19T00:21:05.871Z,15.33
2023-03-19T00:23:27.292Z,12.43
2023-03-19T00:25:48.967Z,10.93
2023-03-19T00:28:10.570Z,9.10
2023-03-19T00:30:32.079Z,8.67
2023-03-19T00:32:53.591Z,9.93
2023-03-19T00:35:15.090Z,11.00
2023-03-19T00:37:37.388Z,11.73
2023-03-19T00:39:58.826Z,15.47
2023-03-19T00:42:20.282Z,14.23
2023-03-19T00:44:41.929Z,16.30
2023-03-19T00:47:03.438Z,11.77
2023-03-19T00:49:25.028Z,17.50
2023-03-19T00:51:46.592Z,16.63
2023-03-19T00:54:08.007Z,15.93
2023-03-19T00:56:29.561Z,12.87
2023-03-19T00:58:51.071Z,8.80
2023-03-19T01:01:16.267Z,12.73
2023-03-19T01:03:38.143Z,6.93
2023-03-19T01:05:59.676Z,8.60
2023-03-19T01:08:21.276Z,11.57
2023-03-19T01:10:43.197Z,12.90
2023-03-19T01:13:04.916Z,10.07
2023-03-19T01:15:26.720Z,10.50
2023-03-19T01:17:48.225Z,10.70
2023-03-19T01:20:14.136Z,8.87
2023-03-19T01:22:37.150Z,8.43
2023-03-19T01:24:58.684Z,10.30
2023-03-19T01:27:21.124Z,9.50
2023-03-19T01:29:42.604Z,8.30
2023-03-19T01:32:04.217Z,12.00
2023-03-19T01:34:25.693Z,10.10
2023-03-19T01:36:47.147Z,9.03
2023-03-19T01:39:09.024Z,11.37
2023-03-19T01:41:30.804Z,9.03
2023-03-19T01:43:52.277Z,10.43
2023-03-19T01:46:22.184Z,11.07
2023-03-19T01:48:50.308Z,9.57
2023-03-19T01:51:15.796Z,9.77
2023-03-19T01:53:41.675Z,9.63
2023-03-19T01:56:12.930Z,10.70
2023-03-19T01:58:34.607Z,10.17
2023-03-19T02:00:57.233Z,9.37
2023-03-19T02:03:18.913Z,10.03
2023-03-19T02:05:42.504Z,10.07
2023-03-19T02:08:07.584Z,10.57
2023-03-19T02:10:30.864Z,10.57
2023-03-19T02:12:52.561Z,17.13
2023-03-19T02:15:14.618Z,10.03
2023-03-19T02:17:36.671Z,11.60
2023-03-19T02:20:18.629Z,6.90
2023-03-19T02:22:52.133Z,8.93
2023-03-19T02:25:21.758Z,8.87
2023-03-19T02:27:43.756Z,9.10
2023-03-19T02:30:24.472Z,8.83
2023-03-19T02:32:45.950Z,8.00
2023-03-19T02:35:10.072Z,13.90
2023-03-19T02:37:33.625Z,8.90
2023-03-19T02:40:04.522Z,11.00
2023-03-19T02:42:28.162Z,7.57
2023-03-19T02:44:50.572Z,6.97
2023-03-19T02:47:12.304Z,5.77
2023-03-19T02:49:33.796Z,9.93
2023-03-19T02:51:55.279Z,8.93
2023-03-19T02:54:16.739Z,13.83
2023-03-19T02:56:38.185Z,8.23
2023-03-19T02:58:59.611Z,9.07
2023-03-19T03:01:21.468Z,9.33
2023-03-19T03:03:42.994Z,10.67
2023-03-19T03:06:04.719Z,8.17
2023-03-19T03:12:02.102Z,10.00
2023-03-19T03:14:24.776Z,9.60
2023-03-19T03:16:46.476Z,7.40
2023-03-19T03:19:08.015Z,9.63
2023-03-19T03:21:29.609Z,10.83
2023-03-19T03:23:51.517Z,10.50
2023-03-19T03:26:13.163Z,10.70
2023-03-19T03:28:34.665Z,7.13
2023-03-19T03:31:00.375Z,8.37
2023-03-19T03:33:21.817Z,9.13
2023-03-19T03:35:43.531Z,7.13
2023-03-19T03:38:05.158Z,8.10
2023-03-19T03:40:27.445Z,9.03
2023-03-19T03:42:48.933Z,8.60
2023-03-19T03:45:11.089Z,7.73
2023-03-19T03:47:32.616Z,9.70
2023-03-19T03:49:54.111Z,7.63
2023-03-19T03:52:15.777Z,7.83
2023-03-19T03:54:37.244Z,8.40
2023-03-19T03:56:58.722Z,10.97
2023-03-19T03:59:20.595Z,8.80
2023-03-19T04:01:42.856Z,9.07
2023-03-19T04:04:05.019Z,9.23
2023-03-19T04:06:27.931Z,11.70
2023-03-19T04:08:49.386Z,7.80
2023-03-19T04:11:11.038Z,8.63
2023-03-19T04:13:36.695Z,9.07
2023-03-19T04:15:58.178Z,7.27
2023-03-19T04:18:19.640Z,7.13
2023-03-19T04:20:41.421Z,7.80
2023-03-19T04:23:03.421Z,8.93
2023-03-19T04:25:25.151Z,12.00
2023-03-19T04:27:46.945Z,10.97
2023-03-19T04:30:09.923Z,8.17
2023-03-19T04:32:31.482Z,7.33
2023-03-19T04:34:52.956Z,8.33
2023-03-19T04:37:14.411Z,11.77
2023-03-19T04:39:36.854Z,6.90
2023-03-19T04:41:58.637Z,9.10
2023-03-19T04:44:20.333Z,9.07
2023-03-19T04:46:42.103Z,6.63
2023-03-19T04:49:03.549Z,23.23
2023-03-19T04:51:25.029Z,26.07
2023-03-19T04:53:46.531Z,10.00
2023-03-19T04:56:08.756Z,11.43
2023-03-19T04:58:30.407Z,14.70
2023-03-19T05:00:52.485Z,15.50
2023-03-19T05:03:14.966Z,12.00
2023-03-19T05:05:36.432Z,12.10
2023-03-19T05:07:58.187Z,11.53
2023-03-19T05:10:19.794Z,8.83
2023-03-19T05:12:41.589Z,10.27
2023-03-19T05:15:05.230Z,8.57
2023-03-19T05:17:26.752Z,6.87
2023-03-19T05:19:48.679Z,8.43
2023-03-19T05:22:10.228Z,10.83
2023-03-19T05:24:31.733Z,8.20
2023-03-19T05:26:53.202Z,14.13
2023-03-19T05:29:14.823Z,10.97
2023-03-19T05:31:38.210Z,11.10
2023-03-19T05:33:59.697Z,8.03
2023-03-19T05:36:21.255Z,10.43
2023-03-19T05:38:42.725Z,9.23
2023-03-19T05:41:05.659Z,10.17
2023-03-19T05:43:27.448Z,9.77
2023-03-19T05:45:54.804Z,12.53
2023-03-19T05:48:17.177Z,10.40
2023-03-19T05:50:38.837Z,8.73
2023-03-19T05:53:00.326Z,11.17
2023-03-19T05:55:21.794Z,6.67
2023-03-19T05:57:43.243Z,16.87
2023-03-19T06:00:06.951Z,11.03
2023-03-19T06:02:28.439Z,7.00
2023-03-19T06:04:49.943Z,10.63
2023-03-19T06:07:11.531Z,12.87
2023-03-19T06:09:33.087Z,10.97
2023-03-19T06:11:54.518Z,8.63
2023-03-19T06:14:16.158Z,6.70
2023-03-19T06:16:37.631Z,9.77
2023-03-19T06:18:59.198Z,9.13
2023-03-19T06:21:20.792Z,8.77
2023-03-19T06:23:42.251Z,9.90
2023-03-19T06:26:04.639Z,8.53
2023-03-19T06:28:26.249Z,8.80
2023-03-19T06:30:47.774Z,9.80
2023-03-19T06:33:09.406Z,9.50
2023-03-19T06:35:31.271Z,10.10
2023-03-19T06:37:52.861Z,8.70
2023-03-19T06:40:14.901Z,8.23
2023-03-19T06:42:36.523Z,10.10
2023-03-19T06:44:58.004Z,6.20
2023-03-19T06:47:20.040Z,8.93
2023-03-19T06:49:41.793Z,8.40
2023-03-19T06:52:03.858Z,8.20
2023-03-19T06:54:25.331Z,7.30
2023-03-19T06:56:47.664Z,8.97
2023-03-19T06:59:13.080Z,6.50
2023-03-19T07:01:34.583Z,7.63
2023-03-19T07:03:57.346Z,9.30
2023-03-19T07:06:18.937Z,9.37
2023-03-19T07:08:46.049Z,8.57
2023-03-19T07:11:08.108Z,9.03
2023-03-19T07:13:29.639Z,9.97
2023-03-19T07:15:51.099Z,8.23
2023-03-19T07:18:12.572Z,9.60
2023-03-19T07:20:34.251Z,8.13
2023-03-19T07:22:55.836Z,8.60
2023-03-19T07:25:17.447Z,8.07
2023-03-19T07:27:38.899Z,6.47
2023-03-19T07:30:00.523Z,9.63
2023-03-19T07:32:23.502Z,7.80
2023-03-19T07:34:44.933Z,8.10
2023-03-19T07:37:06.819Z,8.57
2023-03-19T07:39:28.577Z,9.20
2023-03-19T07:41:50.034Z,9.77
2023-03-19T07:44:11.463Z,9.63
2023-03-19T07:46:32.951Z,8.03
2023-03-19T07:48:54.430Z,9.17
2023-03-19T07:51:16.021Z,6.07
2023-03-19T07:53:37.475Z,7.70
2023-03-19T07:55:59.062Z,7.27
2023-03-19T07:58:20.853Z,8.70
2023-03-19T08:00:42.625Z,8.13
2023-03-19T08:03:04.390Z,7.47
2023-03-19T08:05:25.947Z,16.37
2023-03-19T08:07:49.484Z,18.03
2023-03-19T08:10:11.980Z,12.93
2023-03-19T08:12:34.628Z,8.13
2023-03-19T08:14:56.137Z,8.23
2023-03-19T08:17:17.640Z,8.83
2023-03-19T08:19:39.195Z,11.73
2023-03-19T08:22:00.773Z,11.13
2023-03-19T08:24:22.506Z,9.37
2023-03-19T08:26:44.018Z,7.97
2023-03-19T08:29:06.555Z,9.40
2023-03-19T08:31:28.299Z,13.33
2023-03-19T08:33:49.754Z,9.33
2023-03-19T08:36:13.899Z,10.80
2023-03-19T08:38:35.403Z,7.57
2023-03-19T08:41:02.170Z,6.67
2023-03-19T08:43:23.673Z,7.37
2023-03-19T08:45:45.271Z,10.50
2023-03-19T08:48:06.754Z,8.50
2023-03-19T08:50:28.218Z,8.75
2023-03-19T08:52:50.155Z,7.50
2023-03-19T08:55:11.649Z,8.55
2023-03-19T08:57:33.452Z,6.68
2023-03-19T08:59:54.901Z,12.13
2023-03-19T09:02:16.395Z,8.85
2023-03-19T09:04:41.262Z,12.65
2023-03-19T09:07:02.949Z,8.30
2023-03-19T09:09:24.873Z,11.07
2023-03-19T09:11:46.812Z,7.07
2023-03-19T09:14:08.291Z,7.13
2023-03-19T09:16:31.333Z,9.18
2023-03-19T09:18:52.875Z,7.63
2023-03-19T09:21:14.354Z,8.75
2023-03-19T09:23:36.201Z,11.15
2023-03-19T09:25:57.754Z,8.68
2023-03-19T09:28:19.546Z,9.98
2023-03-19T09:30:43.374Z,10.27
2023-03-19T09:33:05.754Z,11.85
2023-03-19T09:35:31.383Z,10.68
2023-03-19T09:37:52.851Z,10.75
2023-03-19T09:40:24.847Z,8.00
2023-03-19T09:43:35.035Z,8.27
2023-03-19T09:45:57.671Z,9.77
2023-03-19T09:48:36.007Z,8.50
2023-03-19T09:50:59.341Z,10.20
2023-03-19T09:53:26.966Z,9.45
2023-03-19T09:55:51.474Z,8.15
2023-03-19T09:58:27.965Z,9.70
2023-03-19T10:00:51.733Z,10.70
2023-03-19T10:03:43.814Z,9.13
2023-03-19T10:06:29.425Z,9.30
2023-03-19T10:09:16.891Z,8.15
2023-03-19T10:12:02.922Z,7.05
2023-03-19T10:14:45.532Z,5.72
2023-03-19T10:17:13.046Z,5.82
2023-03-19T10:19:43.173Z,9.75
2023-03-19T10:22:12.707Z,7.82
2023-03-19T10:24:43.865Z,7.93
2023-03-19T10:27:12.846Z,8.07
2023-03-19T10:29:34.518Z,9.82
2023-03-19T10:32:14.929Z,5.95
2023-03-19T10:34:40.996Z,5.55
2023-03-19T10:37:13.348Z,6.03
2023-03-19T10:39:37.803Z,6.35
2023-03-19T10:42:37.000Z,5.30
2023-03-19T10:45:20.219Z,6.93
2023-03-19T10:47:44.459Z,8.57
2023-03-19T10:50:09.489Z,5.32
2023-03-19T10:52:35.211Z,7.85
2023-03-19T10:55:03.315Z,5.25
2023-03-19T10:57:29.467Z,5.07
2023-03-19T10:59:50.939Z,9.25
2023-03-19T11:02:27.886Z,6.63
2023-03-19T11:05:07.629Z,6.82
2023-03-19T11:07:33.163Z,5.97
2023-03-19T11:09:55.957Z,5.65
2023-03-19T11:12:23.036Z,7.30
2023-03-19T11:14:47.859Z,7.60
2023-03-19T11:17:20.541Z,8.13
2023-03-19T11:19:49.054Z,6.65
2023-03-19T11:22:23.004Z,5.43
2023-03-19T11:24:56.934Z,8.75
2023-03-19T11:27:18.744Z,4.70
2023-03-19T11:29:43.438Z,6.18
2023-03-19T11:32:37.466Z,5.28
2023-03-19T11:35:14.046Z,4.88
2023-03-19T11:37:55.546Z,7.28
2023-03-19T11:40:42.889Z,5.88
2023-03-19T11:43:39.858Z,7.55
2023-03-19T11:46:25.732Z,6.13
2023-03-19T11:49:09.070Z,6.38
2023-03-19T11:51:41.668Z,6.72
2023-03-19T11:54:18.056Z,6.82
2023-03-19T11:57:01.040Z,6.70
2023-03-19T11:59:43.767Z,6.50
2023-03-19T12:02:30.629Z,5.40
2023-03-19T12:05:03.055Z,7.95
2023-03-19T12:07:46.232Z,11.85
2023-03-19T12:10:30.391Z,5.45
2023-03-19T12:13:02.695Z,6.38
2023-03-19T12:15:55.821Z,6.90
2023-03-19T12:19:05.223Z,6.80
2023-03-19T12:21:48.155Z,5.32
2023-03-19T12:24:24.886Z,6.65
2023-03-19T12:27:22.035Z,5.43
2023-03-19T12:30:03.032Z,5.13
2023-03-19T12:33:07.348Z,5.45
2023-03-19T12:35:35.803Z,5.30
2023-03-19T12:38:12.099Z,6.15
2023-03-19T12:40:52.692Z,6.65
2023-03-19T12:43:32.696Z,4.35
2023-03-19T12:46:12.058Z,6.05
2023-03-19T12:48:42.704Z,5.85
2023-03-19T12:51:09.613Z,4.45
2023-03-19T12:53:35.663Z,6.32
2023-03-19T12:56:01.602Z,4.80
2023-03-19T12:58:37.670Z,3.30
2023-03-19T13:01:08.950Z,3.80
2023-03-19T13:03:44.635Z,4.20
2023-03-19T13:06:20.040Z,5.78
2023-03-19T13:08:52.218Z,5.95
2023-03-19T13:11:44.617Z,4.82
2023-03-19T13:14:26.721Z,5.30
2023-03-19T13:17:09.788Z,4.70
2023-03-19T13:19:35.629Z,4.47
2023-03-19T13:22:02.273Z,4.45
2023-03-19T13:24:52.156Z,4.40
2023-03-19T13:27:24.302Z,5.50
2023-03-19T13:30:07.363Z,4.72
2023-03-19T13:32:37.186Z,4.78
2023-03-19T13:35:23.919Z,4.78
2023-03-19T13:37:47.075Z,4.32
2023-03-19T13:40:54.583Z,6.93
2023-03-19T13:43:28.977Z,4.60
2023-03-19T13:46:04.593Z,5.50
2023-03-19T13:48:28.827Z,7.97
2023-03-19T13:51:23.718Z,4.72
2023-03-19T13:54:15.338Z,5.20
2023-03-19T13:57:04.378Z,5.22
2023-03-19T13:59:27.745Z,4.60
2023-03-19T14:01:49.900Z,6.90
2023-03-19T14:04:20.611Z,5.13
2023-03-19T14:06:46.163Z,4.32
2023-03-19T14:09:43.914Z,6.43
2023-03-19T14:12:11.699Z,4.93
2023-03-19T14:14:33.277Z,4.72
2023-03-19T14:16:55.064Z,3.88
2023-03-19T14:19:20.978Z,4.82
2023-03-19T14:21:47.510Z,4.72
2023-03-19T14:27:21.569Z,11.25
2023-03-19T14:29:45.607Z,3.97
2023-03-19T14:32:15.589Z,4.70
2023-03-19T14:34:42.767Z,14.18
2023-03-19T14:37:25.101Z,3.90
2023-03-19T14:39:52.885Z,6.15
2023-03-19T14:42:26.269Z,3.38
2023-03-19T14:45:18.207Z,5.45
2023-03-19T14:47:56.930Z,5.10
2023-03-19T14:50:33.648Z,3.05
2023-03-19T14:53:04.742Z,5.07
2023-03-19T14:55:35.223Z,3.65
2023-03-19T14:57:56.857Z,2.15
2023-03-19T15:00:19.468Z,3.42
2023-03-19T15:02:47.862Z,1.65
2023-03-19T15:05:16.679Z,2.10
2023-03-19T15:07:47.754Z,3.28
2023-03-19T15:10:17.679Z,2.58
2023-03-19T15:12:43.526Z,2.63
2023-03-19T15:15:22.333Z,2.30
2023-03-19T15:17:49.227Z,3.05
2023-03-19T15:20:21.852Z,2.25
2023-03-19T15:22:43.404Z,3.13
2023-03-19T15:25:10.685Z,4.13
2023-03-19T15:27:32.347Z,3.28
2023-03-19T15:29:59.693Z,2.22
2023-03-19T15:32:52.008Z,6.68
2023-03-19T15:35:15.980Z,29.27
2023-03-19T15:37:42.121Z,5.50
2023-03-19T15:40:09.113Z,3.55
2023-03-19T15:42:31.504Z,2.85
2023-03-19T15:44:58.043Z,2.80
2023-03-19T15:47:27.411Z,2.45
2023-03-19T15:50:12.542Z,5.53
2023-03-19T15:52:38.231Z,5.55
2023-03-19T15:55:01.577Z,3.40
2023-03-19T15:57:24.886Z,1.98
2023-03-19T15:59:46.927Z,4.13
2023-03-19T16:02:20.720Z,4.20
2023-03-19T16:05:14.092Z,4.93
2023-03-19T16:07:31.516Z,3.30
2023-03-19T16:09:53.529Z,4.18
2023-03-19T16:12:41.146Z,4.72
2023-03-19T16:15:20.843Z,3.30
2023-03-19T16:17:42.464Z,3.30
2023-03-19T16:20:04.726Z,4.53
2023-03-19T16:22:31.440Z,5.22
2023-03-19T16:24:53.856Z,3.08
2023-03-19T16:27:21.261Z,4.22
2023-03-19T16:29:45.972Z,4.93
2023-03-19T16:32:25.543Z,5.47
2023-03-19T16:35:19.896Z,5.50
2023-03-19T16:37:46.754Z,5.10
2023-03-19T16:40:14.038Z,5.30
2023-03-19T16:42:35.606Z,3.15
2023-03-19T16:44:57.270Z,4.43
2023-03-19T16:47:18.743Z,3.90
2023-03-19T16:49:40.192Z,5.00
2023-03-19T16:52:01.689Z,6.18
2023-03-19T16:54:23.842Z,4.60
2023-03-19T16:56:45.547Z,3.90
2023-03-19T16:59:17.160Z,4.75
2023-03-19T17:01:38.825Z,4.50
2023-03-19T17:04:00.344Z,3.60
2023-03-19T17:06:22.047Z,5.53
2023-03-19T17:08:44.280Z,5.95
2023-03-19T17:11:06.197Z,4.78
2023-03-19T17:13:30.143Z,4.70
2023-03-19T17:15:51.749Z,3.75
2023-03-19T17:18:18.997Z,4.55
2023-03-19T17:21:09.071Z,3.58
2023-03-19T17:23:30.804Z,4.45
2023-03-19T17:25:53.697Z,3.35
2023-03-19T17:28:15.696Z,5.43
2023-03-19T17:30:38.425Z,2.92
2023-03-19T17:33:00.322Z,3.67
2023-03-19T17:35:22.576Z,3.20
2023-03-19T17:37:45.760Z,6.40
2023-03-19T17:40:18.958Z,5.18
2023-03-19T17:42:40.731Z,6.00
2023-03-19T17:45:02.223Z,5.55
2023-03-19T17:47:23.770Z,4.82
2023-03-19T17:49:46.255Z,5.87
2023-03-19T17:52:16.715Z,3.65
2023-03-19T17:54:38.267Z,5.17
2023-03-19T17:56:59.733Z,5.33
2023-03-19T17:59:22.077Z,3.07
2023-03-19T18:01:43.831Z,5.53
2023-03-19T18:04:05.730Z,3.20
2023-03-19T18:06:33.598Z,4.37
2023-03-19T18:08:55.313Z,4.93
2023-03-19T18:11:17.213Z,5.53
2023-03-19T18:13:39.011Z,3.17
2023-03-19T18:16:00.686Z,5.17
2023-03-19T18:18:22.157Z,7.40
2023-03-19T18:20:44.834Z,3.73
2023-03-19T18:23:06.707Z,5.23
2023-03-19T18:25:28.712Z,5.13
2023-03-19T18:27:50.854Z,3.63
2023-03-19T18:30:16.149Z,6.73
2023-03-19T18:32:40.885Z,4.57
2023-03-19T18:35:03.503Z,6.23
2023-03-19T18:37:24.989Z,5.97
2023-03-19T18:39:46.838Z,5.20
2023-03-19T18:42:12.160Z,5.23
2023-03-19T18:44:33.707Z,5.87
2023-03-19T18:46:55.288Z,5.53
2023-03-19T18:49:23.259Z,6.40
2023-03-19T18:51:59.041Z,5.40
2023-03-19T18:54:22.557Z,8.17
2023-03-19T18:56:45.296Z,5.33
2023-03-19T18:59:24.731Z,5.50
2023-03-19T19:01:46.801Z,7.83
2023-03-19T19:04:08.365Z,4.60
2023-03-19T19:06:46.846Z,9.47
2023-03-19T19:09:08.640Z,4.83
2023-03-19T19:11:30.307Z,5.63
2023-03-19T19:13:58.640Z,6.63
2023-03-19T19:16:38.021Z,3.97
2023-03-19T19:18:59.540Z,5.37
2023-03-19T19:21:21.136Z,4.47
2023-03-19T19:23:42.870Z,3.57
2023-03-19T19:26:05.492Z,3.37
2023-03-19T19:28:36.699Z,5.00
2023-03-19T19:31:00.334Z,5.17
2023-03-19T19:33:24.643Z,6.13
2023-03-19T19:35:46.225Z,4.33
2023-03-19T19:38:07.737Z,5.50
2023-03-19T19:40:31.317Z,4.13
2023-03-19T19:42:53.495Z,5.17
2023-03-19T19:45:27.537Z,4.63
2023-03-19T19:47:49.096Z,5.57
2023-03-19T19:50:17.706Z,8.53
2023-03-19T19:52:39.149Z,10.23
2023-03-19T19:55:00.589Z,14.37
2023-03-19T19:57:24.791Z,20.23
2023-03-19T19:59:46.615Z,20.17
2023-03-19T20:02:19.902Z,16.87
2023-03-19T20:04:41.880Z,11.77
2023-03-19T20:07:03.431Z,9.70
2023-03-19T20:09:24.997Z,4.70
2023-03-19T20:11:46.881Z,5.13
2023-03-19T20:14:12.155Z,4.23
2023-03-19T20:16:33.626Z,4.20
2023-03-19T20:18:55.373Z,3.80
2023-03-19T20:21:17.140Z,3.30
2023-03-19T20:23:40.606Z,3.43
2023-03-19T20:26:02.570Z,3.20
2023-03-19T20:28:32.469Z,4.20
2023-03-19T20:30:54.542Z,4.30
2023-03-19T20:33:18.078Z,4.07
2023-03-19T20:35:39.638Z,2.80
2023-03-19T20:38:02.601Z,4.40
2023-03-19T20:40:31.144Z,2.90
2023-03-19T20:42:52.863Z,3.70
2023-03-19T20:45:18.072Z,3.43
2023-03-19T20:47:39.524Z,4.47
2023-03-19T20:50:01.988Z,4.13
2023-03-19T20:52:23.490Z,3.67
2023-03-19T20:54:45.714Z,3.33
2023-03-19T20:57:15.646Z,3.43
2023-03-19T20:59:37.129Z,4.00
2023-03-19T21:01:58.663Z,4.27
2023-03-19T21:04:20.916Z,6.03
2023-03-19T21:06:52.437Z,4.47
2023-03-19T21:09:15.022Z,4.10
2023-03-19T21:11:39.341Z,4.50
2023-03-19T21:14:01.519Z,3.93
2023-03-19T21:16:25.765Z,3.47
2023-03-19T21:18:47.915Z,5.07
2023-03-19T21:21:12.166Z,5.07
2023-03-19T21:23:37.214Z,3.90
2023-03-19T21:26:09.288Z,3.93
2023-03-19T21:28:38.327Z,4.03
2023-03-19T21:31:00.176Z,6.70
2023-03-19T21:33:23.368Z,6.87
2023-03-19T21:35:44.841Z,6.63
2023-03-19T21:38:06.334Z,4.93
2023-03-19T21:40:30.999Z,5.90
2023-03-19T21:42:56.816Z,5.83
2023-03-19T21:45:34.079Z,6.20
2023-03-19T21:48:02.156Z,4.37
2023-03-19T21:50:23.596Z,5.27
2023-03-19T21:52:57.911Z,4.50
2023-03-19T21:55:21.115Z,6.17
2023-03-19T21:57:43.122Z,6.43
2023-03-19T22:00:11.325Z,6.40
2023-03-19T22:02:44.242Z,7.60
2023-03-19T22:05:20.989Z,8.33
2023-03-19T22:07:42.878Z,6.93
2023-03-19T22:10:04.653Z,5.57
2023-03-19T22:12:28.976Z,5.60
2023-03-19T22:14:50.498Z,3.57
2023-03-19T22:17:12.005Z,7.97
2023-03-19T22:19:33.462Z,5.53
2023-03-19T22:21:55.302Z,6.77
2023-03-19T22:24:16.777Z,7.23
2023-03-19T22:26:40.874Z,6.47
2023-03-19T22:29:06.546Z,3.93
2023-03-19T22:31:28.807Z,6.60
2023-03-19T22:33:51.094Z,5.03
2023-03-19T22:36:14.919Z,4.03
2023-03-19T22:38:36.370Z,5.17
2023-03-19T22:40:57.913Z,4.30
2023-03-19T22:43:27.975Z,6.57
2023-03-19T22:45:55.130Z,6.93
2023-03-19T22:48:18.012Z,6.70
2023-03-19T22:50:39.465Z,5.07
2023-03-19T22:53:01.124Z,5.87
2023-03-19T22:55:23.404Z,6.97
2023-03-19T22:57:45.765Z,5.73
2023-03-19T23:00:14.261Z,6.47
2023-03-19T23:02:36.377Z,11.53
2023-03-19T23:04:57.858Z,6.60
2023-03-19T23:07:19.416Z,5.90
2023-03-19T23:09:41.799Z,6.30
2023-03-19T23:12:04.222Z,6.43
2023-03-19T23:14:30.986Z,8.67
2023-03-19T23:16:53.330Z,6.43
2023-03-19T23:19:35.217Z,6.93
2023-03-19T23:21:58.766Z,6.70
2023-03-19T23:24:21.028Z,6.70
2023-03-19T23:26:45.049Z,6.33
2023-03-19T23:29:06.809Z,6.33
2023-03-19T23:31:28.687Z,8.97
2023-03-19T23:33:50.162Z,6.20
2023-03-19T23:36:12.422Z,6.90
2023-03-19T23:38:33.866Z,8.57
2023-03-19T23:40:55.357Z,10.10
2023-03-19T23:43:27.277Z,6.33
2023-03-19T23:45:51.343Z,9.33
2023-03-19T23:48:16.311Z,8.67
2023-03-19T23:50:38.132Z,5.93
2023-03-19T23:53:00.164Z,6.93
2023-03-19T23:55:22.458Z,5.33
2023-03-19T23:57:44.411Z,6.03
